Time;durP1;ratioP1;P1;durP2;ratioP2;P2;SDS_P1;SDS_P2;PMS_P1;PMS_P2;Temp;Humidity;BMP_temperature;BMP_pressure;BME280_temperature;BME280_humidity;BME280_pressure;Samples;Min_cycle;Max_cycle;Signal;HPM_P1;HPM_P2
2023/04/12 00:00:53;;;;;;;4.70;0.85;;;;;;;;;;4977468;28;20030;-62
2023/04/12 00:03:20;;;;;;;2.15;0.70;;;;;;;;;;4966934;28;20114;-63
2023/04/12 00:05:53;;;;;;;4.70;0.90;;;;;;;;;;4975637;28;20104;-63
2023/04/12 00:08:25;;;;;;;2.70;0.88;;;;;;;;;;4977110;28;20030;-62
2023/04/12 00:10:52;;;;;;;9.57;1.30;;;;;;;;;;4975754;28;20077;-63
2023/04/12 00:13:19;;;;;;;3.80;1.00;;;;;;;;;;4976607;28;20411;-62
2023/04/12 00:15:47;;;;;;;2.50;0.80;;;;;;;;;;4986979;28;20090;-62
2023/04/12 00:18:14;;;;;;;3.33;0.90;;;;;;;;;;4991568;28;20038;-60
2023/04/12 00:20:41;;;;;;;4.78;1.33;;;;;;;;;;4974954;28;20034;-60
2023/04/12 00:23:12;;;;;;;2.03;0.90;;;;;;;;;;4977779;28;20903;-59
2023/04/12 00:25:39;;;;;;;3.80;1.15;;;;;;;;;;4976103;28;20049;-61
2023/04/12 00:28:07;;;;;;;2.60;0.95;;;;;;;;;;4967750;28;20033;-61
2023/04/12 00:30:34;;;;;;;3.33;1.13;;;;;;;;;;4975112;28;20051;-62
2023/04/12 00:33:01;;;;;;;3.08;1.15;;;;;;;;;;4976823;28;20046;-62
2023/04/12 00:35:28;;;;;;;5.55;1.17;;;;;;;;;;4970795;28;20049;-62
2023/04/12 00:37:55;;;;;;;5.03;1.50;;;;;;;;;;4986310;28;20655;-62
2023/04/12 00:40:22;;;;;;;3.45;1.52;;;;;;;;;;4975655;28;20041;-61
2023/04/12 00:42:48;;;;;;;4.38;1.55;;;;;;;;;;4975042;28;20031;-59
2023/04/12 00:45:15;;;;;;;5.53;1.48;;;;;;;;;;4975519;28;20046;-60
2023/04/12 00:47:42;;;;;;;5.65;1.42;;;;;;;;;;4975751;28;20445;-59
2023/04/12 00:50:11;;;;;;;4.50;1.77;;;;;;;;;;4974531;28;20107;-59
2023/04/12 00:52:38;;;;;;;4.00;1.77;;;;;;;;;;4976186;28;20038;-61
2023/04/12 00:55:06;;;;;;;3.55;1.55;;;;;;;;;;4968033;28;20046;-63
2023/04/12 00:57:37;;;;;;;4.35;2.17;;;;;;;;;;4975995;28;20042;-59
2023/04/12 01:00:12;;;;;;;9.45;1.92;;;;;;;;;;4976252;28;20700;-63
2023/04/12 01:02:45;;;;;;;5.95;2.17;;;;;;;;;;4975342;28;20034;-63
2023/04/12 01:05:13;;;;;;;8.45;2.55;;;;;;;;;;4976338;28;20050;-62
2023/04/12 01:07:50;;;;;;;3.55;2.03;;;;;;;;;;4974493;28;20034;-61
2023/04/12 01:10:27;;;;;;;4.97;2.30;;;;;;;;;;4975305;28;20549;-59
2023/04/12 01:13:12;;;;;;;4.85;2.72;;;;;;;;;;4974464;28;20053;-60
2023/04/12 01:15:41;;;;;;;3.30;1.73;;;;;;;;;;4974620;28;20184;-62
2023/04/12 01:18:09;;;;;;;6.18;2.75;;;;;;;;;;4976491;28;20046;-60
2023/04/12 01:20:43;;;;;;;6.78;2.78;;;;;;;;;;4976095;28;20053;-62
2023/04/12 01:23:10;;;;;;;7.72;2.78;;;;;;;;;;4978720;28;20062;-62
2023/04/12 01:25:59;;;;;;;5.82;2.80;;;;;;;;;;4978491;28;20093;-64
2023/04/12 01:28:33;;;;;;;5.70;2.63;;;;;;;;;;4959180;28;20042;-60
2023/04/12 01:31:02;;;;;;;4.97;2.65;;;;;;;;;;4979708;28;20054;-60
2023/04/12 01:33:30;;;;;;;5.18;2.60;;;;;;;;;;4977437;28;20165;-63
2023/04/12 01:35:59;;;;;;;4.85;2.50;;;;;;;;;;4979173;28;20046;-61
2023/04/12 01:38:26;;;;;;;7.43;2.83;;;;;;;;;;4980028;28;20456;-61
2023/04/12 01:40:54;;;;;;;3.95;1.90;;;;;;;;;;4978978;28;20122;-60
2023/04/12 01:43:41;;;;;;;9.35;2.70;;;;;;;;;;5014350;28;20136;-62
2023/04/12 01:46:08;;;;;;;9.48;2.65;;;;;;;;;;5013403;28;20040;-62
2023/04/12 01:48:56;;;;;;;7.43;3.05;;;;;;;;;;4957437;28;20051;-60
2023/04/12 01:51:41;;;;;;;6.43;2.70;;;;;;;;;;4957332;28;20435;-60
2023/04/12 01:54:13;;;;;;;5.57;2.08;;;;;;;;;;4957863;28;20051;-61
2023/04/12 01:56:41;;;;;;;5.35;2.30;;;;;;;;;;4956775;28;20074;-62
2023/04/12 01:59:09;;;;;;;6.13;2.55;;;;;;;;;;4957011;28;20046;-62
2023/04/12 02:01:36;;;;;;;6.50;2.25;;;;;;;;;;4956869;28;20043;-61
2023/04/12 02:04:03;;;;;;;6.88;2.10;;;;;;;;;;4957223;28;20083;-61
2023/04/12 02:06:30;;;;;;;6.90;2.33;;;;;;;;;;4955542;28;20070;-61
2023/04/12 02:08:59;;;;;;;4.28;2.13;;;;;;;;;;4939169;28;20102;-63
2023/04/12 02:11:26;;;;;;;4.28;2.30;;;;;;;;;;4956360;28;20054;-62
2023/04/12 02:13:53;;;;;;;5.03;2.28;;;;;;;;;;4949715;28;20159;-60
2023/04/12 02:16:21;;;;;;;4.07;1.98;;;;;;;;;;4936434;28;20395;-61
2023/04/12 02:18:49;;;;;;;6.78;2.17;;;;;;;;;;4939158;28;20531;-60
2023/04/12 02:21:17;;;;;;;3.58;1.55;;;;;;;;;;4970879;28;20043;-63
2023/04/12 02:23:44;;;;;;;4.97;1.60;;;;;;;;;;4989591;28;20407;-62
2023/04/12 02:26:11;;;;;;;7.10;2.17;;;;;;;;;;4975706;28;20979;-62
2023/04/12 02:28:38;;;;;;;3.85;1.80;;;;;;;;;;4976822;28;20045;-61
2023/04/12 02:31:05;;;;;;;3.67;1.83;;;;;;;;;;4978681;28;20050;-59
2023/04/12 02:33:33;;;;;;;5.72;2.00;;;;;;;;;;4977692;28;20046;-62
2023/04/12 02:36:03;;;;;;;4.20;1.95;;;;;;;;;;4972466;28;20395;-61
2023/04/12 02:38:30;;;;;;;4.07;2.03;;;;;;;;;;4977782;28;20092;-60
2023/04/12 02:40:56;;;;;;;4.28;2.28;;;;;;;;;;4977769;28;20061;-60
2023/04/12 02:43:24;;;;;;;5.43;2.40;;;;;;;;;;4976993;28;20518;-62
2023/04/12 02:45:50;;;;;;;4.75;2.30;;;;;;;;;;4970894;28;20154;-60
2023/04/12 02:48:19;;;;;;;4.93;2.47;;;;;;;;;;4977143;28;20088;-62
2023/04/12 02:50:46;;;;;;;6.63;2.67;;;;;;;;;;4977066;28;20418;-62
2023/04/12 02:53:13;;;;;;;4.57;2.60;;;;;;;;;;4977812;28;20047;-61
2023/04/12 02:55:40;;;;;;;5.13;2.50;;;;;;;;;;4975959;28;20047;-60
2023/04/12 02:58:06;;;;;;;8.00;2.70;;;;;;;;;;4977058;28;20049;-60
2023/04/12 03:00:33;;;;;;;4.70;1.50;;;;;;;;;;4976434;28;20108;-64
2023/04/12 03:03:01;;;;;;;3.63;1.50;;;;;;;;;;4977756;28;20097;-61
2023/04/12 03:05:28;;;;;;;3.90;1.55;;;;;;;;;;4990506;28;20038;-62
2023/04/12 03:07:55;;;;;;;3.50;1.50;;;;;;;;;;4977619;28;20508;-63
2023/04/12 03:10:41;;;;;;;3.55;1.35;;;;;;;;;;4984835;28;20076;-60
2023/04/12 03:13:08;;;;;;;3.70;1.23;;;;;;;;;;4984429;28;20054;-60
2023/04/12 03:15:35;;;;;;;2.72;0.98;;;;;;;;;;4981816;28;20042;-60
2023/04/12 03:18:02;;;;;;;2.75;0.93;;;;;;;;;;4983564;28;20185;-60
2023/04/12 03:20:29;;;;;;;3.10;1.02;;;;;;;;;;4984296;28;20056;-60
2023/04/12 03:22:55;;;;;;;3.60;1.05;;;;;;;;;;4984661;28;20121;-65
2023/04/12 03:25:22;;;;;;;5.43;1.55;;;;;;;;;;4984191;28;20042;-63
2023/04/12 03:27:49;;;;;;;2.60;1.00;;;;;;;;;;4980263;28;20408;-60
2023/04/12 03:30:16;;;;;;;7.10;1.17;;;;;;;;;;4968512;28;20053;-63
2023/04/12 03:32:44;;;;;;;3.80;1.27;;;;;;;;;;4984240;28;20030;-62
2023/04/12 03:35:11;;;;;;;3.47;1.15;;;;;;;;;;4978691;28;20038;-63
2023/04/12 03:37:41;;;;;;;8.52;1.38;;;;;;;;;;4991865;28;20061;-60
2023/04/12 03:40:09;;;;;;;5.30;1.40;;;;;;;;;;4984839;28;20033;-61
2023/04/12 03:42:36;;;;;;;3.28;1.13;;;;;;;;;;4981877;28;20045;-64
2023/04/12 03:45:03;;;;;;;5.28;1.25;;;;;;;;;;4967817;28;20363;-64
2023/04/12 03:47:30;;;;;;;3.17;1.20;;;;;;;;;;4980253;28;20057;-62
2023/04/12 03:50:02;;;;;;;5.70;1.40;;;;;;;;;;4976912;28;20043;-60
2023/04/12 03:52:28;;;;;;;3.25;1.00;;;;;;;;;;4976239;28;20047;-61
2023/04/12 03:54:55;;;;;;;3.75;1.27;;;;;;;;;;4977098;28;20113;-60
2023/04/12 03:57:21;;;;;;;2.88;1.10;;;;;;;;;;4975417;28;20966;-63
2023/04/12 03:59:48;;;;;;;4.43;1.30;;;;;;;;;;4978316;28;20054;-61
2023/04/12 04:02:35;;;;;;;3.72;1.00;;;;;;;;;;5012156;28;20037;-61
2023/04/12 04:05:02;;;;;;;2.90;1.10;;;;;;;;;;5010827;28;20421;-59
2023/04/12 04:07:30;;;;;;;2.95;1.20;;;;;;;;;;5010932;28;20094;-61
2023/04/12 04:09:57;;;;;;;4.20;1.05;;;;;;;;;;5012329;28;20101;-63
2023/04/12 04:12:24;;;;;;;8.68;1.25;;;;;;;;;;5011249;28;20041;-61
2023/04/12 04:14:51;;;;;;;5.03;1.50;;;;;;;;;;5011920;28;21041;-61
2023/04/12 04:17:17;;;;;;;4.85;1.30;;;;;;;;;;5012337;28;20048;-65
2023/04/12 04:19:44;;;;;;;4.70;1.17;;;;;;;;;;5011746;28;20068;-61
2023/04/12 04:22:11;;;;;;;4.03;1.10;;;;;;;;;;5011836;28;20406;-61
2023/04/12 04:24:38;;;;;;;3.05;1.23;;;;;;;;;;5011432;28;21138;-61
2023/04/12 04:27:05;;;;;;;3.63;1.23;;;;;;;;;;4994536;28;22052;-61
2023/04/12 04:29:32;;;;;;;3.30;1.17;;;;;;;;;;5011032;28;20169;-58
2023/04/12 04:31:59;;;;;;;2.70;1.00;;;;;;;;;;5012258;28;20056;-63
2023/04/12 04:34:25;;;;;;;2.85;1.00;;;;;;;;;;5012262;28;20049;-62
2023/04/12 04:36:52;;;;;;;5.28;1.08;;;;;;;;;;5011558;28;20437;-61
2023/04/12 04:39:19;;;;;;;3.55;1.25;;;;;;;;;;5005606;28;21195;-65
2023/04/12 04:41:53;;;;;;;5.03;1.27;;;;;;;;;;4975995;28;20054;-61
2023/04/12 04:44:20;;;;;;;3.95;1.10;;;;;;;;;;4989577;28;20133;-62
2023/04/12 04:46:47;;;;;;;3.38;1.15;;;;;;;;;;4975717;28;20057;-61
2023/04/12 04:49:15;;;;;;;3.03;0.93;;;;;;;;;;4975509;28;20038;-61
2023/04/12 04:51:41;;;;;;;3.75;1.10;;;;;;;;;;4990911;28;20068;-63
2023/04/12 04:54:08;;;;;;;3.40;1.10;;;;;;;;;;4976380;28;20054;-61
2023/04/12 04:56:35;;;;;;;5.53;1.30;;;;;;;;;;4974802;28;20045;-62
2023/04/12 04:59:01;;;;;;;3.30;1.30;;;;;;;;;;4990244;28;20047;-60
2023/04/12 05:01:28;;;;;;;3.25;1.10;;;;;;;;;;4980261;28;20039;-61
2023/04/12 05:03:55;;;;;;;3.10;1.20;;;;;;;;;;4980619;28;20049;-61
2023/04/12 05:06:21;;;;;;;3.88;1.27;;;;;;;;;;4979271;28;20042;-59
2023/04/12 05:08:48;;;;;;;2.83;1.02;;;;;;;;;;4979390;28;20038;-61
2023/04/12 05:11:15;;;;;;;3.47;1.30;;;;;;;;;;4979417;28;20042;-62
2023/04/12 05:13:42;;;;;;;2.88;1.00;;;;;;;;;;4979084;28;20065;-61
2023/04/12 05:16:08;;;;;;;3.88;1.02;;;;;;;;;;4979361;28;20058;-61
2023/04/12 05:18:35;;;;;;;3.00;1.10;;;;;;;;;;4978970;28;20102;-61
2023/04/12 05:21:03;;;;;;;3.70;1.20;;;;;;;;;;4980113;28;20041;-62
2023/04/12 05:23:30;;;;;;;4.43;1.20;;;;;;;;;;4979080;28;20069;-61
2023/04/12 05:25:56;;;;;;;3.33;1.15;;;;;;;;;;4978834;28;20064;-61
2023/04/12 05:28:23;;;;;;;2.97;1.15;;;;;;;;;;4977381;28;20385;-61
2023/04/12 05:30:50;;;;;;;6.97;1.38;;;;;;;;;;4978994;28;20493;-64
2023/04/12 05:33:16;;;;;;;2.80;1.05;;;;;;;;;;4979180;28;20066;-64
2023/04/12 05:35:43;;;;;;;6.10;1.30;;;;;;;;;;4978646;28;20200;-60
2023/04/12 05:38:10;;;;;;;4.53;1.45;;;;;;;;;;4988866;28;20121;-63
2023/04/12 05:40:37;;;;;;;4.32;1.27;;;;;;;;;;4993182;28;20108;-63
2023/04/12 05:43:04;;;;;;;5.43;1.30;;;;;;;;;;4970812;28;20026;-61
2023/04/12 05:45:31;;;;;;;6.82;1.30;;;;;;;;;;4977187;28;20123;-59
2023/04/12 05:47:57;;;;;;;4.95;1.10;;;;;;;;;;4979122;28;20165;-59
2023/04/12 05:50:24;;;;;;;3.17;1.25;;;;;;;;;;4979316;28;20042;-63
2023/04/12 05:52:51;;;;;;;3.92;1.05;;;;;;;;;;4978825;28;20080;-62
2023/04/12 05:55:17;;;;;;;3.97;1.25;;;;;;;;;;4977654;28;20047;-62
2023/04/12 05:57:47;;;;;;;6.68;1.33;;;;;;;;;;4977903;28;20042;-64
2023/04/12 06:00:17;;;;;;;4.20;1.00;;;;;;;;;;4976583;28;20117;-61
2023/04/12 06:02:45;;;;;;;3.72;1.27;;;;;;;;;;4977961;28;20525;-64
2023/04/12 06:05:12;;;;;;;3.28;1.27;;;;;;;;;;4978378;28;20528;-61
2023/04/12 06:07:39;;;;;;;5.07;1.25;;;;;;;;;;4978175;28;21222;-60
2023/04/12 06:10:06;;;;;;;3.90;1.30;;;;;;;;;;4969867;28;20042;-61
2023/04/12 06:12:33;;;;;;;3.63;1.23;;;;;;;;;;4978005;28;20050;-63
2023/04/12 06:15:00;;;;;;;6.45;1.30;;;;;;;;;;4977690;28;20376;-62
2023/04/12 06:17:27;;;;;;;4.35;1.30;;;;;;;;;;4977110;28;20038;-60
2023/04/12 06:19:53;;;;;;;4.93;1.50;;;;;;;;;;4977307;28;20069;-60
2023/04/12 06:22:20;;;;;;;2.40;0.90;;;;;;;;;;4977125;28;20038;-61
2023/04/12 06:24:47;;;;;;;4.18;1.20;;;;;;;;;;4978397;28;20045;-63
2023/04/12 06:27:13;;;;;;;3.05;1.13;;;;;;;;;;4977510;28;20157;-61
2023/04/12 06:29:40;;;;;;;3.25;1.10;;;;;;;;;;4976698;28;20045;-64
2023/04/12 06:32:07;;;;;;;4.50;1.20;;;;;;;;;;4978123;28;20550;-62
2023/04/12 06:34:33;;;;;;;3.83;1.05;;;;;;;;;;4977075;28;20114;-63
2023/04/12 06:37:00;;;;;;;3.85;1.08;;;;;;;;;;4977157;28;20034;-63
2023/04/12 06:39:27;;;;;;;3.33;1.08;;;;;;;;;;4977049;28;20082;-62
2023/04/12 06:41:56;;;;;;;5.45;1.25;;;;;;;;;;4977391;28;20623;-62
2023/04/12 06:44:23;;;;;;;3.45;1.20;;;;;;;;;;4977165;28;20112;-63
2023/04/12 06:46:50;;;;;;;3.53;1.13;;;;;;;;;;4970017;28;20100;-63
2023/04/12 06:49:16;;;;;;;3.25;1.13;;;;;;;;;;4978762;28;20122;-60
2023/04/12 06:51:43;;;;;;;3.70;1.10;;;;;;;;;;4967660;28;20096;-61
2023/04/12 06:54:10;;;;;;;4.78;1.10;;;;;;;;;;4977386;28;20030;-61
2023/04/12 06:56:38;;;;;;;4.07;1.25;;;;;;;;;;4976584;28;20403;-61
2023/04/12 06:59:05;;;;;;;3.90;1.45;;;;;;;;;;4978002;28;20057;-63
2023/04/12 07:01:32;;;;;;;2.80;1.10;;;;;;;;;;4976744;28;20046;-63
2023/04/12 07:03:58;;;;;;;4.78;1.17;;;;;;;;;;4978513;28;20042;-63
2023/04/12 07:06:25;;;;;;;4.45;1.38;;;;;;;;;;4975155;28;20034;-62
2023/04/12 07:08:52;;;;;;;3.38;1.38;;;;;;;;;;4978424;28;20039;-62
2023/04/12 07:11:21;;;;;;;3.55;1.20;;;;;;;;;;4969407;28;20047;-63
2023/04/12 07:13:47;;;;;;;2.90;1.05;;;;;;;;;;4976168;28;20046;-61
2023/04/12 07:16:14;;;;;;;4.25;1.55;;;;;;;;;;4976677;28;20038;-62
2023/04/12 07:18:41;;;;;;;3.08;1.20;;;;;;;;;;4976147;28;20061;-62
2023/04/12 07:21:08;;;;;;;5.00;1.38;;;;;;;;;;4968826;28;20051;-61
2023/04/12 07:23:34;;;;;;;3.42;1.20;;;;;;;;;;4977123;28;20034;-63
2023/04/12 07:26:01;;;;;;;3.10;1.30;;;;;;;;;;4977173;28;20074;-62
2023/04/12 07:28:28;;;;;;;4.50;1.27;;;;;;;;;;4977535;28;20439;-61
2023/04/12 07:30:55;;;;;;;7.15;1.08;;;;;;;;;;4977512;28;20046;-61
2023/04/12 07:33:21;;;;;;;3.20;1.10;;;;;;;;;;4976552;28;20403;-61
2023/04/12 07:35:48;;;;;;;4.85;1.20;;;;;;;;;;4977015;28;20041;-60
2023/04/12 07:38:15;;;;;;;2.83;1.05;;;;;;;;;;4969534;28;20073;-61
2023/04/12 07:40:41;;;;;;;6.43;1.40;;;;;;;;;;4993046;28;20226;-64
2023/04/12 07:43:08;;;;;;;3.35;1.23;;;;;;;;;;4978028;28;20054;-61
2023/04/12 07:45:37;;;;;;;3.50;1.30;;;;;;;;;;4977187;28;20089;-62
2023/04/12 07:48:05;;;;;;;4.25;1.38;;;;;;;;;;4977150;28;20522;-61
2023/04/12 07:50:32;;;;;;;3.50;1.13;;;;;;;;;;4976608;28;20066;-64
2023/04/12 07:53:17;;;;;;;2.75;1.15;;;;;;;;;;4977093;28;20034;-60
2023/04/12 07:55:44;;;;;;;5.78;1.35;;;;;;;;;;4975887;28;20042;-60
2023/04/12 07:58:11;;;;;;;3.15;1.17;;;;;;;;;;4979327;28;20118;-62
2023/04/12 08:00:37;;;;;;;4.78;1.30;;;;;;;;;;4971243;28;20042;-62
2023/04/12 08:03:04;;;;;;;2.80;1.10;;;;;;;;;;4977212;28;20043;-60
2023/04/12 08:05:30;;;;;;;5.88;1.25;;;;;;;;;;4976465;28;20785;-62
2023/04/12 08:07:57;;;;;;;3.65;1.30;;;;;;;;;;4976320;28;20070;-61
2023/04/12 08:10:24;;;;;;;2.72;1.15;;;;;;;;;;4976446;28;20046;-61
2023/04/12 08:12:50;;;;;;;6.75;1.67;;;;;;;;;;4967278;28;20428;-61
2023/04/12 08:15:17;;;;;;;5.13;1.35;;;;;;;;;;4968131;28;20503;-61
2023/04/12 08:17:45;;;;;;;2.80;1.15;;;;;;;;;;4988387;28;20129;-63
2023/04/12 08:20:12;;;;;;;4.72;1.25;;;;;;;;;;4976854;28;20037;-61
2023/04/12 08:22:39;;;;;;;4.70;1.33;;;;;;;;;;4985185;28;20042;-63
2023/04/12 08:25:06;;;;;;;3.42;1.30;;;;;;;;;;4976212;28;20062;-63
2023/04/12 08:27:33;;;;;;;2.80;1.20;;;;;;;;;;4975763;28;20054;-61
2023/04/12 08:29:59;;;;;;;3.15;1.33;;;;;;;;;;4977751;28;20046;-58
2023/04/12 08:32:26;;;;;;;4.28;1.17;;;;;;;;;;4976529;28;20051;-62
2023/04/12 08:34:52;;;;;;;5.07;1.30;;;;;;;;;;4980274;28;20161;-64
2023/04/12 08:37:19;;;;;;;3.50;1.20;;;;;;;;;;4973578;28;20062;-63
2023/04/12 08:39:46;;;;;;;4.45;1.60;;;;;;;;;;4981472;28;20065;-62
2023/04/12 08:42:17;;;;;;;4.60;1.50;;;;;;;;;;4980720;28;20097;-61
2023/04/12 08:44:44;;;;;;;4.38;1.60;;;;;;;;;;4979623;28;20113;-63
2023/04/12 08:47:11;;;;;;;3.72;1.50;;;;;;;;;;4979400;28;20061;-63
2023/04/12 08:49:38;;;;;;;6.00;1.80;;;;;;;;;;4980019;28;20148;-59
2023/04/12 08:52:06;;;;;;;3.25;1.20;;;;;;;;;;4981433;28;20046;-60
2023/04/12 08:54:36;;;;;;;3.05;1.45;;;;;;;;;;4995488;28;20042;-61
2023/04/12 08:57:07;;;;;;;4.40;1.40;;;;;;;;;;4978918;28;20069;-61
2023/04/12 08:59:38;;;;;;;3.47;1.40;;;;;;;;;;4980265;28;20112;-61
2023/04/12 09:02:05;;;;;;;3.17;1.33;;;;;;;;;;4979752;28;20050;-62
2023/04/12 09:04:31;;;;;;;3.70;1.50;;;;;;;;;;4979608;28;20064;-61
2023/04/12 09:06:58;;;;;;;2.80;1.17;;;;;;;;;;4979332;28;20096;-60
2023/04/12 09:09:43;;;;;;;2.95;1.20;;;;;;;;;;4979449;28;20709;-61
2023/04/12 09:12:10;;;;;;;3.40;1.38;;;;;;;;;;4980784;28;20054;-61
2023/04/12 09:14:38;;;;;;;3.63;1.38;;;;;;;;;;4980204;28;20101;-60
2023/04/12 09:17:05;;;;;;;6.43;1.55;;;;;;;;;;4979266;28;20038;-59
2023/04/12 09:19:35;;;;;;;3.22;1.40;;;;;;;;;;4980157;28;20043;-60
2023/04/12 09:22:02;;;;;;;3.70;1.30;;;;;;;;;;4980129;28;20034;-60
2023/04/12 09:24:30;;;;;;;5.00;1.60;;;;;;;;;;4978937;28;20900;-60
2023/04/12 09:27:04;;;;;;;3.42;1.25;;;;;;;;;;4979081;28;20130;-60
2023/04/12 09:29:31;;;;;;;2.83;1.20;;;;;;;;;;4979069;28;20065;-59
2023/04/12 09:32:00;;;;;;;3.65;1.45;;;;;;;;;;4979071;28;20408;-58
2023/04/12 09:34:27;;;;;;;3.22;1.35;;;;;;;;;;4978528;28;20047;-61
2023/04/12 09:36:54;;;;;;;4.22;1.85;;;;;;;;;;4978389;28;20066;-60
2023/04/12 09:39:30;;;;;;;4.95;1.50;;;;;;;;;;4978305;28;20392;-60
2023/04/12 09:42:07;;;;;;;6.28;1.55;;;;;;;;;;4979087;28;20042;-60
2023/04/12 09:44:34;;;;;;;4.13;1.30;;;;;;;;;;4977624;28;20062;-59
2023/04/12 09:47:04;;;;;;;3.38;1.52;;;;;;;;;;4977448;28;20069;-60
2023/04/12 09:49:41;;;;;;;4.82;1.80;;;;;;;;;;4977452;28;20141;-60
2023/04/12 09:52:09;;;;;;;3.40;1.55;;;;;;;;;;4979502;28;20062;-60
2023/04/12 09:54:38;;;;;;;4.30;1.58;;;;;;;;;;4978571;28;20491;-61
2023/04/12 09:57:07;;;;;;;5.75;1.50;;;;;;;;;;4978045;28;20042;-59
2023/04/12 09:59:36;;;;;;;4.63;1.65;;;;;;;;;;4978562;28;20041;-61
2023/04/12 10:02:07;;;;;;;4.10;1.75;;;;;;;;;;4978807;28;20042;-60
2023/04/12 10:04:36;;;;;;;3.20;1.50;;;;;;;;;;4979872;28;20806;-61
2023/04/12 10:07:03;;;;;;;4.13;1.40;;;;;;;;;;4979592;28;20519;-60
2023/04/12 10:09:30;;;;;;;8.18;1.77;;;;;;;;;;4979757;28;20116;-60
2023/04/12 10:11:58;;;;;;;3.63;1.50;;;;;;;;;;4980487;28;20054;-60
2023/04/12 10:14:26;;;;;;;5.18;1.65;;;;;;;;;;4980115;28;20045;-60
2023/04/12 10:16:55;;;;;;;3.60;1.60;;;;;;;;;;4981088;28;20053;-59
2023/04/12 10:19:23;;;;;;;6.30;1.60;;;;;;;;;;4982023;28;20031;-59
2023/04/12 10:21:49;;;;;;;3.90;1.70;;;;;;;;;;4981243;28;20088;-60
2023/04/12 10:24:16;;;;;;;4.38;1.88;;;;;;;;;;4977462;28;20601;-61
2023/04/12 10:26:43;;;;;;;4.72;1.48;;;;;;;;;;4978720;28;20042;-59
2023/04/12 10:29:29;;;;;;;3.58;1.45;;;;;;;;;;4978313;28;20042;-59
2023/04/12 10:31:59;;;;;;;4.30;1.33;;;;;;;;;;4977745;28;20387;-59
2023/04/12 10:34:29;;;;;;;4.15;1.55;;;;;;;;;;4978401;28;20549;-60
2023/04/12 10:36:57;;;;;;;6.22;1.90;;;;;;;;;;4977887;28;21082;-60
2023/04/12 10:39:41;;;;;;;4.32;1.48;;;;;;;;;;4977415;28;20083;-61
2023/04/12 10:42:26;;;;;;;6.47;1.65;;;;;;;;;;4993271;28;20064;-59
2023/04/12 10:44:54;;;;;;;3.40;1.35;;;;;;;;;;4977297;28;20128;-60
2023/04/12 10:47:57;;;;;;;4.13;1.40;;;;;;;;;;4977974;28;20113;-59
2023/04/12 10:50:31;;;;;;;3.85;1.30;;;;;;;;;;4912846;29;21765;-59
2023/04/12 10:53:24;;;;;;;4.38;1.52;;;;;;;;;;4968124;28;20042;-59
2023/04/12 10:55:52;;;;;;;4.28;1.35;;;;;;;;;;4974622;28;20046;-61
2023/04/12 10:58:36;;;;;;;2.95;1.23;;;;;;;;;;4978772;28;20058;-61
2023/04/12 11:01:03;;;;;;;4.50;1.50;;;;;;;;;;4976504;28;20052;-62
2023/04/12 11:03:30;;;;;;;3.40;1.30;;;;;;;;;;4980081;28;20038;-62
2023/04/12 11:05:58;;;;;;;3.60;1.40;;;;;;;;;;4981002;28;20038;-61
2023/04/12 11:08:26;;;;;;;4.45;1.63;;;;;;;;;;4979519;28;20064;-60
2023/04/12 11:10:59;;;;;;;4.20;1.67;;;;;;;;;;4979381;28;20038;-60
2023/04/12 11:13:26;;;;;;;3.38;1.20;;;;;;;;;;4978054;28;20031;-58
2023/04/12 11:15:56;;;;;;;4.10;1.70;;;;;;;;;;4978198;28;20057;-58
2023/04/12 11:18:23;;;;;;;7.43;1.83;;;;;;;;;;4977484;28;20039;-58
2023/04/12 11:20:52;;;;;;;4.70;1.85;;;;;;;;;;4976977;28;20047;-59
2023/04/12 11:23:18;;;;;;;5.22;2.00;;;;;;;;;;4977829;28;20133;-57
2023/04/12 11:25:51;;;;;;;3.67;1.70;;;;;;;;;;4977653;28;20522;-59
2023/04/12 11:28:18;;;;;;;5.45;1.80;;;;;;;;;;4978612;28;20615;-59
2023/04/12 11:30:58;;;;;;;4.00;1.63;;;;;;;;;;4978653;28;20418;-61
2023/04/12 11:33:35;;;;;;;3.55;1.50;;;;;;;;;;4977453;28;20070;-60
2023/04/12 11:36:07;;;;;;;4.65;1.70;;;;;;;;;;4978532;28;20057;-60
2023/04/12 11:38:34;;;;;;;4.47;1.85;;;;;;;;;;4977064;28;20042;-60
2023/04/12 11:41:01;;;;;;;4.78;1.60;;;;;;;;;;4977062;28;20503;-61
2023/04/12 11:43:28;;;;;;;5.72;1.88;;;;;;;;;;4976187;28;20042;-61
2023/04/12 11:45:58;;;;;;;5.68;1.83;;;;;;;;;;4977250;28;20475;-61
2023/04/12 11:48:25;;;;;;;4.30;1.80;;;;;;;;;;4976665;28;20053;-60
2023/04/12 11:50:52;;;;;;;5.32;2.40;;;;;;;;;;4976622;28;20657;-62
2023/04/12 11:53:21;;;;;;;4.80;2.40;;;;;;;;;;4977587;28;20034;-60
2023/04/12 11:55:48;;;;;;;6.25;2.30;;;;;;;;;;4976524;28;20038;-59
2023/04/12 11:58:15;;;;;;;4.90;2.08;;;;;;;;;;4976291;28;20065;-60
2023/04/12 12:00:44;;;;;;;5.95;2.55;;;;;;;;;;4977050;28;20057;-60
2023/04/12 12:03:11;;;;;;;5.47;1.83;;;;;;;;;;4976876;28;20042;-59
2023/04/12 12:05:41;;;;;;;5.35;2.30;;;;;;;;;;4976672;28;20034;-59
2023/04/12 12:08:08;;;;;;;6.95;2.47;;;;;;;;;;4977268;28;20077;-63
2023/04/12 12:10:38;;;;;;;4.53;2.13;;;;;;;;;;4976582;28;20066;-61
2023/04/12 12:13:13;;;;;;;4.38;2.13;;;;;;;;;;4976573;28;20165;-59
2023/04/12 12:15:46;;;;;;;4.07;1.98;;;;;;;;;;4976496;28;20049;-59
2023/04/12 12:18:13;;;;;;;4.28;1.90;;;;;;;;;;4976999;28;20038;-60
2023/04/12 12:20:41;;;;;;;4.28;1.90;;;;;;;;;;4977061;28;20034;-58
2023/04/12 12:23:08;;;;;;;4.70;2.20;;;;;;;;;;4977184;28;20043;-58
2023/04/12 12:25:34;;;;;;;6.85;2.50;;;;;;;;;;4975878;28;20447;-59
2023/04/12 12:28:04;;;;;;;7.63;2.25;;;;;;;;;;4976785;28;20047;-62
2023/04/12 12:30:31;;;;;;;6.68;2.28;;;;;;;;;;4976215;28;20538;-61
2023/04/12 12:32:57;;;;;;;8.05;2.38;;;;;;;;;;4975475;28;20124;-60
2023/04/12 12:35:26;;;;;;;3.92;1.67;;;;;;;;;;4977485;28;20503;-59
2023/04/12 12:37:54;;;;;;;6.80;2.30;;;;;;;;;;4977215;28;20495;-59
2023/04/12 12:40:34;;;;;;;7.90;2.58;;;;;;;;;;4976798;28;20038;-61
2023/04/12 12:43:01;;;;;;;5.88;2.58;;;;;;;;;;4977479;28;20088;-61
2023/04/12 12:45:29;;;;;;;7.78;2.30;;;;;;;;;;4975571;28;20198;-62
2023/04/12 12:47:57;;;;;;;5.60;2.55;;;;;;;;;;4976077;28;20042;-59
2023/04/12 12:50:25;;;;;;;5.50;2.53;;;;;;;;;;4973230;28;20038;-61
2023/04/12 12:52:53;;;;;;;5.30;2.28;;;;;;;;;;4974315;28;20480;-60
2023/04/12 12:55:20;;;;;;;8.55;2.45;;;;;;;;;;4975710;28;20074;-61
2023/04/12 12:57:47;;;;;;;10.52;2.50;;;;;;;;;;4976947;28;20137;-61
2023/04/12 13:00:14;;;;;;;4.65;2.03;;;;;;;;;;4975386;28;20066;-62
2023/04/12 13:02:41;;;;;;;4.82;2.50;;;;;;;;;;4974933;28;20130;-60
2023/04/12 13:05:09;;;;;;;9.95;2.40;;;;;;;;;;4976567;28;20042;-63
2023/04/12 13:07:36;;;;;;;6.70;2.47;;;;;;;;;;4974968;28;20046;-63
2023/04/12 13:10:03;;;;;;;6.63;2.88;;;;;;;;;;4976621;28;20046;-62
2023/04/12 13:12:29;;;;;;;5.65;3.03;;;;;;;;;;4975454;28;20061;-61
2023/04/12 13:14:57;;;;;;;6.78;2.65;;;;;;;;;;4976426;28;20042;-61
2023/04/12 13:17:23;;;;;;;8.02;3.10;;;;;;;;;;4975291;28;20243;-61
2023/04/12 13:19:50;;;;;;;7.47;2.88;;;;;;;;;;4978926;28;20448;-61
2023/04/12 13:22:17;;;;;;;9.15;3.22;;;;;;;;;;4979294;28;20046;-63
2023/04/12 13:24:44;;;;;;;8.20;3.50;;;;;;;;;;4977890;28;20824;-62
2023/04/12 13:27:12;;;;;;;6.60;3.35;;;;;;;;;;4980639;28;20042;-61
2023/04/12 13:29:39;;;;;;;8.07;3.17;;;;;;;;;;4979424;28;20044;-61
2023/04/12 13:32:06;;;;;;;5.97;3.35;;;;;;;;;;4980983;28;20057;-61
2023/04/12 13:34:32;;;;;;;5.70;3.50;;;;;;;;;;4977518;28;20055;-59
2023/04/12 13:36:59;;;;;;;6.95;4.10;;;;;;;;;;4980354;28;20038;-62
2023/04/12 13:39:26;;;;;;;6.82;3.50;;;;;;;;;;4978017;28;20045;-62
2023/04/12 13:41:53;;;;;;;9.38;3.80;;;;;;;;;;4977298;28;20042;-61
2023/04/12 13:44:19;;;;;;;12.82;3.55;;;;;;;;;;4897745;28;2320576;-63
2023/04/12 13:46:46;;;;;;;7.88;3.30;;;;;;;;;;4979423;28;20419;-62
2023/04/12 13:49:13;;;;;;;6.95;2.53;;;;;;;;;;4979715;28;20061;-61
2023/04/12 13:51:39;;;;;;;9.35;3.35;;;;;;;;;;4976843;28;20081;-62
2023/04/12 13:54:06;;;;;;;7.35;3.17;;;;;;;;;;4979748;28;20046;-59
2023/04/12 13:56:33;;;;;;;9.75;3.78;;;;;;;;;;4976599;28;20619;-61
2023/04/12 13:58:59;;;;;;;11.00;3.28;;;;;;;;;;4979254;28;20570;-63
2023/04/12 14:01:26;;;;;;;10.05;3.00;;;;;;;;;;4977289;28;20035;-61
2023/04/12 14:03:53;;;;;;;5.90;2.83;;;;;;;;;;4979581;28;20049;-60
2023/04/12 14:06:19;;;;;;;10.50;3.60;;;;;;;;;;4979992;28;20041;-63
2023/04/12 14:08:46;;;;;;;6.97;3.30;;;;;;;;;;4978752;28;20037;-62
2023/04/12 14:11:13;;;;;;;6.07;3.50;;;;;;;;;;4979973;28;20046;-60
2023/04/12 14:13:40;;;;;;;7.07;3.50;;;;;;;;;;4979348;28;20042;-61
2023/04/12 14:16:07;;;;;;;9.48;3.55;;;;;;;;;;4980150;28;20042;-60
2023/04/12 14:18:34;;;;;;;11.00;4.10;;;;;;;;;;4978702;28;20043;-60
2023/04/12 14:21:02;;;;;;;8.80;3.55;;;;;;;;;;4978667;28;20053;-62
2023/04/12 14:23:28;;;;;;;6.97;3.50;;;;;;;;;;4979424;28;20076;-62
2023/04/12 14:25:55;;;;;;;9.02;3.75;;;;;;;;;;4979733;28;20046;-62
2023/04/12 14:28:23;;;;;;;7.40;3.33;;;;;;;;;;4978794;28;20668;-61
2023/04/12 14:30:53;;;;;;;6.75;3.85;;;;;;;;;;4977167;28;20057;-61
2023/04/12 14:33:19;;;;;;;6.88;3.95;;;;;;;;;;4978925;28;20113;-60
2023/04/12 14:35:47;;;;;;;7.32;3.97;;;;;;;;;;4979486;28;20505;-60
2023/04/12 14:38:14;;;;;;;13.10;4.78;;;;;;;;;;4979282;28;20418;-62
2023/04/12 14:40:40;;;;;;;6.45;3.78;;;;;;;;;;4976556;28;20034;-62
2023/04/12 14:43:07;;;;;;;7.38;3.30;;;;;;;;;;4977861;28;20074;-59
2023/04/12 14:45:36;;;;;;;5.82;3.50;;;;;;;;;;4978299;28;20121;-60
2023/04/12 14:48:03;;;;;;;5.70;3.45;;;;;;;;;;4978317;28;20046;-59
2023/04/12 14:50:30;;;;;;;6.88;3.88;;;;;;;;;;4977768;28;20045;-61